Barbican, United Kingdom
Current Conditions -  °F | °C
As of 3:50 PM on Saturday 25 Oct 2014 (Local Time) from EGLC Reporting Station
Few Clouds Few Clouds  
Wind Chill: 61°   Ceiling: Unl
Heat Index: 61°   Visibility: 6mi
Dew Point: 43°   Wind: 14mph
Humidity: 52%   Direction: 250°WSW
Pressure: 30.06"   Gusts: NA
Location:  51.52°N, 0.09°W
Report Text: EGLC 251450Z AUTO 25012KT 9999 FEW045/// 16/06 Q1018
Loading
Personal Weather Stations






























Interactive Weather Map
Tropical Storm Tracking
New forecast layout! Learn more

10-Day Weather Forecast

Advertisements
Track Severe Weather on mobile